Time;durP1;ratioP1;P1;durP2;ratioP2;P2;SDS_P1;SDS_P2;PMS_P1;PMS_P2;Temp;Humidity;BMP_temperature;BMP_pressure;BME280_temperature;BME280_humidity;BME280_pressure;Samples;Min_cycle;Max_cycle;Signal;HPM_P1;HPM_P2
2023/05/09 00:00:47;;;;;;;25.83;23.33;;;14.10;99.90;;;;;;4974883;28;20423;-69
2023/05/09 00:03:13;;;;;;;27.37;24.57;;;14.10;99.90;;;;;;4974969;28;20549;-68
2023/05/09 00:05:39;;;;;;;28.57;25.60;;;14.20;99.90;;;;;;4975355;28;20633;-69
2023/05/09 00:08:04;;;;;;;25.77;22.87;;;14.20;99.90;;;;;;4974817;28;20657;-68
2023/05/09 00:10:30;;;;;;;26.60;23.60;;;14.30;99.90;;;;;;4974591;28;20539;-69
2023/05/09 00:12:57;;;;;;;21.70;19.60;;;14.30;99.90;;;;;;4974834;28;20176;-69
2023/05/09 00:15:22;;;;;;;23.77;21.30;;;14.30;99.90;;;;;;4974581;28;20634;-69
2023/05/09 00:17:49;;;;;;;28.37;25.30;;;14.40;99.90;;;;;;4973724;28;20466;-68
2023/05/09 00:20:14;;;;;;;27.07;24.13;;;14.30;99.90;;;;;;4974418;28;20172;-69
2023/05/09 00:22:40;;;;;;;25.43;22.93;;;14.30;99.90;;;;;;4974570;28;20511;-69
2023/05/09 00:25:10;;;;;;;26.27;23.67;;;14.30;99.90;;;;;;4974646;28;20223;-69
2023/05/09 00:27:36;;;;;;;25.27;22.67;;;14.40;99.90;;;;;;4974425;28;20184;-69
2023/05/09 00:30:03;;;;;;;30.03;23.83;;;14.30;99.90;;;;;;4973944;28;20980;-69
2023/05/09 00:32:29;;;;;;;27.63;24.73;;;14.40;99.90;;;;;;4974321;28;20427;-69
2023/05/09 00:34:55;;;;;;;25.23;22.63;;;14.40;99.90;;;;;;4974416;28;20917;-69
2023/05/09 00:37:20;;;;;;;27.27;24.27;;;14.40;99.90;;;;;;4974224;28;20471;-69
2023/05/09 00:39:49;;;;;;;26.40;23.70;;;14.40;99.90;;;;;;4972765;28;20657;-68
2023/05/09 00:42:15;;;;;;;26.47;23.73;;;14.40;99.90;;;;;;4974099;28;20183;-69
2023/05/09 00:44:41;;;;;;;29.37;25.03;;;14.40;99.90;;;;;;4974155;28;20423;-69
2023/05/09 00:47:06;;;;;;;28.00;25.10;;;14.40;99.90;;;;;;4974013;28;20458;-69
2023/05/09 00:49:33;;;;;;;27.43;23.70;;;14.40;99.90;;;;;;4973913;28;20173;-66
2023/05/09 00:51:59;;;;;;;27.80;25.10;;;14.40;99.90;;;;;;4974048;28;20179;-67
2023/05/09 00:54:25;;;;;;;27.20;24.50;;;14.30;99.90;;;;;;4974031;28;20418;-66
2023/05/09 00:56:51;;;;;;;28.13;24.50;;;14.40;99.90;;;;;;4973911;28;20443;-67
2023/05/09 00:59:17;;;;;;;30.47;27.33;;;14.40;99.90;;;;;;4973662;28;20400;-67
2023/05/09 01:01:43;;;;;;;28.87;24.80;;;14.40;99.90;;;;;;4973921;28;20168;-66
2023/05/09 01:04:10;;;;;;;29.50;26.33;;;14.30;99.90;;;;;;4973814;28;20471;-67
2023/05/09 01:06:43;;;;;;;26.37;23.60;;;14.40;99.90;;;;;;4973701;28;20776;-67
2023/05/09 01:09:59;;;;;;;29.50;25.50;;;14.40;99.90;;;;;;4973383;28;20438;-66
2023/05/09 01:12:48;;;;;;;29.33;24.00;;;14.30;99.90;;;;;;4973743;28;20479;-66
2023/05/09 01:15:22;;;;;;;27.43;24.53;;;14.30;99.90;;;;;;4973622;28;20912;-66
2023/05/09 01:17:57;;;;;;;27.70;24.80;;;14.30;99.90;;;;;;4973501;28;20799;-66
2023/05/09 01:20:44;;;;;;;28.10;25.20;;;14.30;99.90;;;;;;4973398;28;20835;-66
2023/05/09 01:23:09;;;;;;;28.63;25.73;;;14.30;99.90;;;;;;4973520;28;20427;-66
2023/05/09 01:26:12;;;;;;;26.50;23.50;;;14.20;99.90;;;;;;4973509;28;20447;-66
2023/05/09 01:29:00;;;;;;;35.30;27.47;;;14.20;99.90;;;;;;4973057;28;20606;-66
2023/05/09 01:31:27;;;;;;;33.03;26.17;;;14.20;99.90;;;;;;4973533;28;20565;-66
2023/05/09 01:33:58;;;;;;;33.30;26.30;;;14.10;99.90;;;;;;4973452;28;20522;-65
2023/05/09 01:36:28;;;;;;;30.83;27.50;;;14.10;99.90;;;;;;4973357;28;20424;-66
2023/05/09 01:38:57;;;;;;;32.87;29.57;;;14.10;99.90;;;;;;4973187;28;20423;-69
2023/05/09 01:41:23;;;;;;;31.17;27.67;;;14.10;99.90;;;;;;4973380;28;20423;-69
2023/05/09 01:43:50;;;;;;;29.30;26.13;;;14.10;99.90;;;;;;4973291;28;20563;-69
2023/05/09 01:46:18;;;;;;;30.50;25.87;;;14.20;99.90;;;;;;4973325;28;20479;-69
2023/05/09 01:48:44;;;;;;;29.37;26.27;;;14.30;99.90;;;;;;4972956;28;20484;-69
2023/05/09 01:51:13;;;;;;;30.27;27.17;;;14.20;99.90;;;;;;4973188;28;20467;-69
2023/05/09 01:53:39;;;;;;;30.73;27.37;;;14.20;99.90;;;;;;4973161;28;20427;-69
2023/05/09 01:56:08;;;;;;;32.47;29.03;;;14.10;99.90;;;;;;4973232;28;20422;-69
2023/05/09 01:58:35;;;;;;;36.47;26.87;;;14.00;99.90;;;;;;4972852;28;20513;-69
2023/05/09 02:01:02;;;;;;;31.73;27.80;;;13.90;99.90;;;;;;4973240;28;20478;-69
2023/05/09 02:03:27;;;;;;;34.43;29.13;;;13.90;99.90;;;;;;4973162;28;20428;-69
2023/05/09 02:05:55;;;;;;;36.00;30.60;;;13.80;99.90;;;;;;4973356;28;20431;-69
2023/05/09 02:08:21;;;;;;;34.13;29.40;;;13.80;99.90;;;;;;4972885;28;20214;-69
2023/05/09 02:10:48;;;;;;;33.67;29.23;;;13.70;99.90;;;;;;4973094;28;20490;-69
2023/05/09 02:13:14;;;;;;;37.20;29.70;;;13.70;99.90;;;;;;4973088;28;20428;-69
2023/05/09 02:15:40;;;;;;;36.23;31.47;;;13.70;99.90;;;;;;4973098;28;20431;-69
2023/05/09 02:18:06;;;;;;;38.07;31.00;;;13.80;99.90;;;;;;4972708;28;20466;-69
2023/05/09 02:20:34;;;;;;;36.20;29.47;;;13.80;99.90;;;;;;4972827;28;20423;-69
2023/05/09 02:23:00;;;;;;;35.17;30.73;;;13.80;99.90;;;;;;4972953;28;20179;-69
2023/05/09 02:25:26;;;;;;;37.23;30.97;;;13.70;99.90;;;;;;4973082;28;20431;-69
2023/05/09 02:27:55;;;;;;;36.67;32.63;;;13.70;99.90;;;;;;4972805;28;20564;-69
2023/05/09 02:30:26;;;;;;;40.70;30.90;;;13.80;99.90;;;;;;4972574;28;20524;-69
2023/05/09 02:33:03;;;;;;;36.00;30.70;;;13.80;99.90;;;;;;4972928;28;20998;-69
2023/05/09 02:35:29;;;;;;;37.27;30.97;;;13.80;99.90;;;;;;4972865;28;20426;-69
2023/05/09 02:37:56;;;;;;;36.17;30.97;;;13.80;99.90;;;;;;4972704;28;20439;-69
2023/05/09 02:40:25;;;;;;;35.93;31.33;;;13.80;99.90;;;;;;4974591;28;20559;-69
2023/05/09 02:42:50;;;;;;;36.83;30.23;;;13.80;99.90;;;;;;4976501;28;20432;-69
2023/05/09 02:45:16;;;;;;;33.23;28.77;;;13.90;99.90;;;;;;4976322;28;20430;-69
2023/05/09 02:47:41;;;;;;;37.33;27.90;;;13.90;99.90;;;;;;4976282;28;20567;-69
2023/05/09 02:50:07;;;;;;;29.77;26.57;;;14.00;99.90;;;;;;4976007;28;20219;-69
2023/05/09 02:52:33;;;;;;;26.63;23.93;;;14.10;99.90;;;;;;4976297;28;20178;-69
2023/05/09 02:54:58;;;;;;;26.43;23.63;;;14.10;99.90;;;;;;4976245;28;20177;-69
2023/05/09 02:57:24;;;;;;;29.60;26.37;;;14.00;99.90;;;;;;4976144;28;20200;-69
2023/05/09 02:59:49;;;;;;;31.00;25.63;;;14.00;99.90;;;;;;4975932;28;20596;-69
2023/05/09 03:02:15;;;;;;;29.73;24.43;;;14.10;99.90;;;;;;4974991;28;20659;-69
2023/05/09 03:04:41;;;;;;;27.60;24.70;;;14.10;99.90;;;;;;4976144;28;20230;-69
2023/05/09 03:07:06;;;;;;;30.20;25.27;;;14.00;99.90;;;;;;4975929;28;20259;-69
2023/05/09 03:09:32;;;;;;;35.47;27.97;;;13.90;99.90;;;;;;4975839;28;20267;-69
2023/05/09 03:11:57;;;;;;;28.83;23.37;;;13.80;99.90;;;;;;4976060;28;20180;-69
2023/05/09 03:14:23;;;;;;;28.03;25.17;;;13.80;99.90;;;;;;4975999;28;20191;-69
2023/05/09 03:16:48;;;;;;;26.80;24.10;;;13.80;99.90;;;;;;4975859;28;20219;-69
2023/05/09 03:19:14;;;;;;;29.17;26.17;;;13.90;99.90;;;;;;4975650;28;20634;-69
2023/05/09 03:21:40;;;;;;;30.90;27.23;;;13.80;99.90;;;;;;4975687;28;20185;-69
2023/05/09 03:24:06;;;;;;;32.60;29.07;;;13.70;99.90;;;;;;4975756;28;20547;-69
2023/05/09 03:26:34;;;;;;;29.10;25.90;;;13.70;99.90;;;;;;4975611;28;20426;-69
2023/05/09 03:29:00;;;;;;;32.00;27.80;;;13.70;99.90;;;;;;4975305;28;20434;-69
2023/05/09 03:31:25;;;;;;;28.73;25.90;;;13.70;99.90;;;;;;4975496;28;20475;-69
2023/05/09 03:33:51;;;;;;;32.43;27.63;;;13.70;99.90;;;;;;4975677;28;20474;-69
2023/05/09 03:36:17;;;;;;;31.23;27.63;;;13.60;99.90;;;;;;4975474;28;20176;-69
2023/05/09 03:38:42;;;;;;;29.73;26.50;;;13.60;99.90;;;;;;4975093;28;20562;-69
2023/05/09 03:41:08;;;;;;;30.23;26.50;;;13.50;99.90;;;;;;4975393;28;20195;-69
2023/05/09 03:43:34;;;;;;;31.63;28.23;;;13.60;99.90;;;;;;4975365;28;20191;-69
2023/05/09 03:45:59;;;;;;;31.33;27.17;;;13.50;99.90;;;;;;4975366;28;20424;-69
2023/05/09 03:48:25;;;;;;;29.57;26.40;;;13.40;99.90;;;;;;4975023;28;20207;-69
2023/05/09 03:50:51;;;;;;;35.07;28.63;;;13.30;99.90;;;;;;4975358;28;20237;-69
2023/05/09 03:53:16;;;;;;;38.90;30.97;;;13.20;99.90;;;;;;4975185;28;20709;-69
2023/05/09 03:55:42;;;;;;;36.53;29.73;;;13.20;99.90;;;;;;4975188;28;20172;-69
2023/05/09 03:58:07;;;;;;;34.43;29.17;;;13.10;99.90;;;;;;4974829;28;20283;-69
2023/05/09 04:00:33;;;;;;;31.63;28.00;;;13.20;99.90;;;;;;4974876;28;20176;-69
2023/05/09 04:02:59;;;;;;;32.00;27.93;;;13.20;99.90;;;;;;4974991;28;20263;-69
2023/05/09 04:05:25;;;;;;;34.83;27.63;;;13.20;99.90;;;;;;4974937;28;20172;-69
2023/05/09 04:07:51;;;;;;;30.23;26.50;;;13.20;99.90;;;;;;4974901;28;20311;-69
2023/05/09 04:10:17;;;;;;;30.97;26.67;;;13.10;99.90;;;;;;4974518;28;20470;-69
2023/05/09 04:12:42;;;;;;;32.53;28.50;;;13.10;99.90;;;;;;4974729;28;20183;-69
2023/05/09 04:15:08;;;;;;;33.13;27.50;;;13.00;99.90;;;;;;4974786;28;20789;-69
2023/05/09 04:17:34;;;;;;;30.43;27.00;;;13.10;99.90;;;;;;4974464;28;20211;-69
2023/05/09 04:20:00;;;;;;;32.23;26.83;;;13.10;99.90;;;;;;4974438;28;20428;-69
2023/05/09 04:22:25;;;;;;;31.93;27.90;;;13.10;99.90;;;;;;4974564;28;20168;-69
2023/05/09 04:24:51;;;;;;;29.17;26.07;;;13.10;99.90;;;;;;4974577;28;20210;-69
2023/05/09 04:27:16;;;;;;;29.03;25.80;;;13.10;99.90;;;;;;4974428;28;20290;-69
2023/05/09 04:29:42;;;;;;;31.77;27.43;;;13.10;99.90;;;;;;4974065;28;20596;-69
2023/05/09 04:32:07;;;;;;;28.70;25.47;;;13.10;99.90;;;;;;4974492;28;20172;-69
2023/05/09 04:34:33;;;;;;;29.80;26.77;;;13.10;99.90;;;;;;4974414;28;20168;-69
2023/05/09 04:36:58;;;;;;;34.30;27.40;;;13.10;99.90;;;;;;4974279;28;20244;-69
2023/05/09 04:39:24;;;;;;;33.53;28.23;;;13.10;99.90;;;;;;4973987;28;20172;-69
2023/05/09 04:41:49;;;;;;;27.90;24.90;;;13.20;99.90;;;;;;4974209;28;20179;-69
2023/05/09 04:44:17;;;;;;;31.80;26.47;;;13.30;99.90;;;;;;4974247;28;20634;-69
2023/05/09 04:46:43;;;;;;;29.40;26.17;;;13.40;99.90;;;;;;4974064;28;20180;-69
2023/05/09 04:49:08;;;;;;;28.30;24.53;;;13.60;99.90;;;;;;4974013;28;20442;-69
2023/05/09 04:51:34;;;;;;;29.37;26.23;;;13.70;99.90;;;;;;4974066;28;20237;-69
2023/05/09 04:53:59;;;;;;;27.87;24.97;;;13.80;99.90;;;;;;4974146;28;20633;-69
2023/05/09 04:56:25;;;;;;;27.40;24.47;;;13.90;99.90;;;;;;4972661;28;20176;-69
2023/05/09 04:58:51;;;;;;;27.87;24.80;;;13.90;99.90;;;;;;4973638;28;20561;-69
2023/05/09 05:01:17;;;;;;;29.50;24.77;;;14.00;99.90;;;;;;4973906;28;20176;-69
2023/05/09 05:03:43;;;;;;;26.70;23.90;;;14.20;99.90;;;;;;4973754;28;20424;-69
2023/05/09 05:06:08;;;;;;;26.93;23.87;;;14.40;99.90;;;;;;4973848;28;20188;-69
2023/05/09 05:08:34;;;;;;;27.13;24.10;;;14.50;99.90;;;;;;4973425;28;20192;-69
2023/05/09 05:10:59;;;;;;;24.77;22.17;;;14.60;99.90;;;;;;4973590;28;20287;-69
2023/05/09 05:13:25;;;;;;;23.17;20.80;;;14.80;99.90;;;;;;4973755;28;20613;-69
2023/05/09 05:15:51;;;;;;;21.93;19.73;;;15.00;99.90;;;;;;4974002;28;20184;-69
2023/05/09 05:18:16;;;;;;;22.50;20.20;;;15.00;99.90;;;;;;5008793;23;20700;-76
2023/05/09 05:20:42;;;;;;;24.97;22.37;;;15.10;99.90;;;;;;4992979;28;20441;-77
2023/05/09 05:23:08;;;;;;;23.80;20.67;;;14.80;99.90;;;;;;4992932;28;20263;-77
2023/05/09 05:25:34;;;;;;;27.40;21.20;;;14.60;99.90;;;;;;4992977;28;20474;-77
2023/05/09 05:27:59;;;;;;;24.13;20.53;;;14.40;99.90;;;;;;4982320;28;20275;-77
2023/05/09 05:30:25;;;;;;;24.73;22.10;;;14.40;99.90;;;;;;4973204;28;20223;-75
2023/05/09 05:32:50;;;;;;;23.43;21.03;;;14.20;99.90;;;;;;4973554;28;20176;-76
2023/05/09 05:35:16;;;;;;;23.43;20.40;;;14.20;99.90;;;;;;4973430;28;20196;-77
2023/05/09 05:37:43;;;;;;;23.40;20.90;;;14.10;99.90;;;;;;4973433;28;20192;-75
2023/05/09 05:40:08;;;;;;;24.77;22.20;;;14.20;99.90;;;;;;4973151;28;20199;-76
2023/05/09 05:42:34;;;;;;;25.70;22.90;;;14.20;99.90;;;;;;4973324;28;20439;-75
2023/05/09 05:45:03;;;;;;;27.30;22.83;;;14.30;99.90;;;;;;4973403;28;20178;-77
2023/05/09 05:47:37;;;;;;;26.33;23.60;;;14.40;99.90;;;;;;4973341;28;20605;-76
2023/05/09 05:50:10;;;;;;;24.33;21.70;;;14.50;99.90;;;;;;4972965;28;20963;-77
2023/05/09 05:52:39;;;;;;;25.97;23.30;;;14.60;99.90;;;;;;4973239;28;20420;-77
2023/05/09 05:55:05;;;;;;;24.97;22.30;;;14.70;99.90;;;;;;4973343;28;20502;-77
2023/05/09 05:57:30;;;;;;;24.90;22.43;;;14.80;99.90;;;;;;4973189;28;20439;-77
2023/05/09 05:59:56;;;;;;;25.80;23.10;;;15.00;99.90;;;;;;4972902;28;20869;-77
2023/05/09 06:02:21;;;;;;;23.57;21.27;;;15.10;99.90;;;;;;4973241;28;20267;-75
2023/05/09 06:04:47;;;;;;;23.73;21.33;;;15.10;99.90;;;;;;4973189;28;20293;-77
2023/05/09 06:07:13;;;;;;;27.73;24.90;;;15.30;99.90;;;;;;4972977;28;20645;-77
2023/05/09 06:09:38;;;;;;;26.20;23.30;;;15.30;99.90;;;;;;4974192;28;20183;-79
2023/05/09 06:12:05;;;;;;;25.53;23.13;;;15.50;99.90;;;;;;4973254;28;20184;-77
2023/05/09 06:14:30;;;;;;;25.40;22.90;;;15.80;99.90;;;;;;4973987;28;20451;-77
2023/05/09 06:16:56;;;;;;;27.37;24.47;;;15.90;99.90;;;;;;4976751;28;20450;-77
2023/05/09 06:19:22;;;;;;;26.70;23.90;;;16.00;99.90;;;;;;4976668;28;20179;-77
2023/05/09 06:21:47;;;;;;;27.33;23.33;;;16.10;99.90;;;;;;4976866;28;20416;-76
2023/05/09 06:24:13;;;;;;;25.53;23.10;;;16.20;99.90;;;;;;4976939;28;20211;-76
2023/05/09 06:26:38;;;;;;;25.43;23.00;;;16.30;99.90;;;;;;4976953;28;20172;-77
2023/05/09 06:29:07;;;;;;;26.40;23.90;;;16.20;99.90;;;;;;4976383;28;20302;-75
2023/05/09 06:31:37;;;;;;;27.87;24.90;;;16.20;99.90;;;;;;4976682;28;20208;-77
2023/05/09 06:34:05;;;;;;;26.43;24.03;;;16.20;99.90;;;;;;4976664;28;20419;-77
2023/05/09 06:36:31;;;;;;;25.17;22.47;;;16.10;99.90;;;;;;4976611;28;20507;-77
2023/05/09 06:38:57;;;;;;;28.30;25.37;;;16.20;99.90;;;;;;4976299;28;21031;-77
2023/05/09 06:41:22;;;;;;;27.87;25.23;;;16.30;99.90;;;;;;4976620;28;20176;-77
2023/05/09 06:43:48;;;;;;;28.80;25.90;;;16.40;99.90;;;;;;4976490;28;20207;-77
2023/05/09 06:46:13;;;;;;;28.67;25.37;;;16.30;99.90;;;;;;4976428;28;20172;-77
2023/05/09 06:48:39;;;;;;;28.53;25.67;;;16.20;99.90;;;;;;4976094;28;20693;-77
2023/05/09 06:51:04;;;;;;;28.03;25.03;;;15.90;99.90;;;;;;4976244;28;20254;-77
2023/05/09 06:53:30;;;;;;;28.53;25.60;;;16.00;99.90;;;;;;4976313;28;20168;-77
2023/05/09 06:55:55;;;;;;;27.87;25.03;;;16.20;99.90;;;;;;4976382;28;20176;-77
2023/05/09 06:58:21;;;;;;;27.50;24.73;;;16.30;99.90;;;;;;4977014;28;20188;-78
2023/05/09 07:00:47;;;;;;;27.47;24.60;;;16.50;99.90;;;;;;4977387;28;20173;-77
2023/05/09 07:03:12;;;;;;;28.60;25.57;;;16.50;99.90;;;;;;4977411;28;20426;-77
2023/05/09 07:05:38;;;;;;;26.10;23.73;;;16.50;99.90;;;;;;4977006;28;20184;-77
2023/05/09 07:08:04;;;;;;;25.47;23.07;;;16.90;99.90;;;;;;4976611;28;20223;-78
2023/05/09 07:10:29;;;;;;;26.60;24.00;;;17.30;99.90;;;;;;4976100;28;20204;-77
2023/05/09 07:12:55;;;;;;;24.67;22.10;;;17.50;99.90;;;;;;4976390;28;20184;-77
2023/05/09 07:15:21;;;;;;;26.10;23.37;;;17.30;99.90;;;;;;4976168;28;20177;-77
2023/05/09 07:17:46;;;;;;;25.13;22.77;;;17.10;99.90;;;;;;4975913;28;20348;-71
2023/05/09 07:20:12;;;;;;;28.37;25.30;;;17.00;99.90;;;;;;4954552;28;20184;-70
2023/05/09 07:22:37;;;;;;;27.10;23.93;;;16.90;99.90;;;;;;4966089;28;20181;-72
2023/05/09 07:25:05;;;;;;;24.60;22.00;;;16.90;99.90;;;;;;4959636;28;20183;-71
2023/05/09 07:27:30;;;;;;;27.40;24.60;;;16.90;99.90;;;;;;4973028;28;20200;-78
2023/05/09 07:29:56;;;;;;;25.60;22.90;;;17.10;99.90;;;;;;4970526;28;20459;-78
2023/05/09 07:32:21;;;;;;;27.43;24.73;;;17.40;99.90;;;;;;4981109;28;20188;-78
2023/05/09 07:34:47;;;;;;;26.67;23.53;;;17.60;99.90;;;;;;4978422;28;20600;-78
2023/05/09 07:37:12;;;;;;;26.57;23.00;;;17.80;99.90;;;;;;4996699;28;20192;-78
2023/05/09 07:39:38;;;;;;;25.00;22.50;;;17.70;99.90;;;;;;4991243;28;20179;-78
2023/05/09 07:42:04;;;;;;;25.77;23.27;;;17.60;99.90;;;;;;4975433;28;20177;-77
2023/05/09 07:44:30;;;;;;;25.57;22.77;;;17.60;99.90;;;;;;4975496;28;20169;-77
2023/05/09 07:46:57;;;;;;;27.23;22.87;;;17.60;99.90;;;;;;4975876;28;20177;-78
2023/05/09 07:49:23;;;;;;;24.63;21.80;;;17.70;99.90;;;;;;4994664;28;20633;-76
2023/05/09 07:51:49;;;;;;;25.20;22.70;;;18.00;99.90;;;;;;4995569;28;20596;-78
2023/05/09 07:54:14;;;;;;;22.30;20.10;;;18.00;99.90;;;;;;4995855;28;20909;-78
2023/05/09 07:56:40;;;;;;;23.67;21.27;;;18.40;99.90;;;;;;4995160;28;20661;-77
2023/05/09 07:59:06;;;;;;;24.33;21.70;;;18.50;99.90;;;;;;4995365;28;20191;-76
2023/05/09 08:01:31;;;;;;;21.67;19.60;;;18.40;99.90;;;;;;4984967;28;20579;-78
2023/05/09 08:03:57;;;;;;;22.90;20.53;;;18.50;99.90;;;;;;4976763;28;20172;-78
2023/05/09 08:06:23;;;;;;;21.60;19.37;;;18.70;99.90;;;;;;4976672;28;20208;-77
2023/05/09 08:08:48;;;;;;;19.63;17.77;;;18.80;99.90;;;;;;4976090;28;20195;-78
2023/05/09 08:11:14;;;;;;;17.67;16.07;;;19.00;99.90;;;;;;4977128;28;20512;-78
2023/05/09 08:13:39;;;;;;;18.57;16.50;;;18.90;99.90;;;;;;4976313;28;20179;-78
2023/05/09 08:16:05;;;;;;;20.17;18.13;;;18.90;99.90;;;;;;4975723;28;20168;-77
2023/05/09 08:18:31;;;;;;;20.53;18.53;;;19.00;99.90;;;;;;4957148;28;20219;-77
2023/05/09 08:20:58;;;;;;;20.20;18.30;;;19.50;99.90;;;;;;4975201;28;20180;-77
2023/05/09 08:23:24;;;;;;;18.70;16.90;;;19.50;99.90;;;;;;4974977;28;20176;-77
2023/05/09 08:25:53;;;;;;;19.73;17.90;;;19.50;99.90;;;;;;4988390;28;20521;-78
2023/05/09 08:28:20;;;;;;;17.77;16.07;;;19.50;99.90;;;;;;4972865;28;20455;-77
2023/05/09 08:30:46;;;;;;;17.97;16.17;;;19.80;99.90;;;;;;4974432;28;20456;-78
2023/05/09 08:33:12;;;;;;;18.53;16.90;;;20.10;99.90;;;;;;4975126;28;20416;-77
2023/05/09 08:35:37;;;;;;;16.60;14.93;;;20.40;99.90;;;;;;4974712;28;20175;-76
2023/05/09 08:38:03;;;;;;;14.70;13.50;;;20.10;99.90;;;;;;4974027;28;20207;-78
2023/05/09 08:40:28;;;;;;;14.30;13.00;;;20.30;99.90;;;;;;4974427;28;20179;-77
2023/05/09 08:42:54;;;;;;;15.03;13.60;;;20.50;99.90;;;;;;4975035;28;20645;-78
2023/05/09 08:45:26;;;;;;;16.07;14.47;;;20.60;99.90;;;;;;4974287;28;20176;-77
2023/05/09 08:47:52;;;;;;;16.87;15.27;;;20.70;99.90;;;;;;4974624;28;20215;-78
2023/05/09 08:50:19;;;;;;;14.73;13.33;;;20.40;99.90;;;;;;4974558;28;20463;-78
2023/05/09 08:52:45;;;;;;;16.00;14.60;;;21.00;99.90;;;;;;4974510;28;20420;-77
2023/05/09 08:55:11;;;;;;;14.23;12.83;;;21.30;99.90;;;;;;4957401;28;20506;-78
2023/05/09 08:57:37;;;;;;;14.23;12.87;;;21.10;99.90;;;;;;4974413;28;20448;-77
2023/05/09 09:00:09;;;;;;;11.00;10.00;;;21.40;99.90;;;;;;4973480;28;20423;-76
2023/05/09 09:02:39;;;;;;;9.70;8.90;;;22.00;99.90;;;;;;4974764;28;20176;-79
2023/05/09 09:05:06;;;;;;;11.23;10.33;;;22.10;99.90;;;;;;4975095;28;20802;-77
2023/05/09 09:07:34;;;;;;;10.60;9.70;;;22.20;99.90;;;;;;4974225;28;20451;-78
2023/05/09 09:10:01;;;;;;;9.93;9.13;;;21.90;99.90;;;;;;4973784;28;20452;-78
2023/05/09 09:12:27;;;;;;;10.03;9.23;;;21.30;99.90;;;;;;4973902;28;20426;-77
2023/05/09 09:14:54;;;;;;;10.77;9.87;;;20.90;99.90;;;;;;4973879;28;20420;-76
2023/05/09 09:17:26;;;;;;;10.00;9.10;;;20.80;99.90;;;;;;4973681;28;20223;-77
2023/05/09 09:19:55;;;;;;;11.20;10.20;;;20.90;99.90;;;;;;4973532;28;20420;-77
2023/05/09 09:22:21;;;;;;;10.37;9.47;;;20.30;99.90;;;;;;4973510;28;20514;-77
2023/05/09 09:24:47;;;;;;;12.03;10.90;;;20.40;99.90;;;;;;4962293;28;20818;-77
2023/05/09 09:27:12;;;;;;;15.13;13.63;;;20.60;99.90;;;;;;4954272;28;20444;-77
2023/05/09 09:29:38;;;;;;;15.20;13.83;;;20.30;99.90;;;;;;4954337;29;20181;-78
2023/05/09 09:32:05;;;;;;;12.50;11.40;;;20.30;99.90;;;;;;4955236;29;20212;-78
2023/05/09 09:34:31;;;;;;;11.40;10.47;;;21.10;99.90;;;;;;4955381;29;20199;-77
2023/05/09 09:36:57;;;;;;;12.47;11.37;;;22.10;99.90;;;;;;4956111;29;20412;-77
2023/05/09 09:39:23;;;;;;;14.33;12.93;;;23.20;99.90;;;;;;4956175;29;20815;-79
2023/05/09 09:41:48;;;;;;;12.80;11.63;;;24.20;99.90;;;;;;4956950;29;20268;-78
2023/05/09 09:44:15;;;;;;;13.10;12.10;;;24.80;99.90;;;;;;4956031;28;20659;-78
2023/05/09 09:46:49;;;;;;;13.20;12.00;;;24.00;99.90;;;;;;4956561;29;20169;-78
2023/05/09 09:49:25;;;;;;;13.83;12.73;;;23.60;99.90;;;;;;4957236;28;20429;-78
2023/05/09 09:51:52;;;;;;;10.63;9.80;;;24.40;99.90;;;;;;4957050;29;20470;-78
2023/05/09 09:54:18;;;;;;;11.20;10.30;;;25.10;99.90;;;;;;4957443;29;20420;-78
2023/05/09 09:56:49;;;;;;;13.03;11.93;;;25.30;99.90;;;;;;4957547;29;20421;-78
2023/05/09 09:59:23;;;;;;;13.20;12.20;;;24.60;99.90;;;;;;4957123;29;20357;-78
2023/05/09 10:02:03;;;;;;;13.73;12.33;;;23.80;99.90;;;;;;4957277;29;20474;-77
2023/05/09 10:04:30;;;;;;;12.27;11.30;;;24.20;99.90;;;;;;4957600;29;20424;-78
2023/05/09 10:07:09;;;;;;;9.90;9.17;;;25.00;99.90;;;;;;4956995;29;20504;-78
2023/05/09 10:09:36;;;;;;;11.93;10.93;;;26.40;99.90;;;;;;4957078;29;20858;-78
2023/05/09 10:12:06;;;;;;;10.30;9.50;;;26.50;99.90;;;;;;4957972;29;21024;-78
2023/05/09 10:14:35;;;;;;;11.70;10.70;;;26.10;99.90;;;;;;4957920;29;20444;-78
2023/05/09 10:17:02;;;;;;;12.33;11.03;;;25.70;99.90;;;;;;4957527;28;20424;-78
2023/05/09 10:19:28;;;;;;;12.70;11.60;;;25.20;99.90;;;;;;4957499;29;20421;-78
2023/05/09 10:21:56;;;;;;;12.90;11.80;;;24.50;99.90;;;;;;4957333;29;20432;-79
2023/05/09 10:24:37;;;;;;;15.03;13.53;;;24.20;99.90;;;;;;4956944;29;20837;-78
2023/05/09 10:27:08;;;;;;;14.03;12.43;;;23.80;99.90;;;;;;4957640;29;20444;-78
2023/05/09 10:29:36;;;;;;;13.67;12.37;;;24.80;99.90;;;;;;4958200;29;20421;-78
2023/05/09 10:32:15;;;;;;;13.37;12.17;;;26.80;99.90;;;;;;4957878;29;20467;-78
2023/05/09 10:34:44;;;;;;;14.00;12.90;;;28.10;97.10;;;;;;4957423;29;20881;-78
2023/05/09 10:37:11;;;;;;;14.90;13.70;;;27.90;95.40;;;;;;4953862;29;20444;-76
2023/05/09 10:39:37;;;;;;;14.87;13.60;;;27.00;97.80;;;;;;4953273;28;20427;-76
2023/05/09 10:42:04;;;;;;;15.03;13.60;;;27.80;96.60;;;;;;4953477;29;20420;-75
2023/05/09 10:44:29;;;;;;;15.27;14.00;;;28.20;93.40;;;;;;4954150;28;20181;-76
2023/05/09 10:46:55;;;;;;;14.17;12.87;;;26.90;95.80;;;;;;4955795;28;20431;-77
2023/05/09 10:49:21;;;;;;;14.37;13.07;;;25.50;99.90;;;;;;4972597;28;20176;-77
2023/05/09 10:51:50;;;;;;;13.50;12.30;;;24.70;99.90;;;;;;4993392;28;20833;-78
2023/05/09 10:54:27;;;;;;;13.07;11.97;;;24.10;99.90;;;;;;4954640;28;20432;-77
2023/05/09 10:56:53;;;;;;;12.50;11.40;;;24.00;99.90;;;;;;4994421;28;20422;-77
2023/05/09 10:59:36;;;;;;;12.37;11.37;;;24.80;99.90;;;;;;4993446;28;20423;-77
2023/05/09 11:02:03;;;;;;;14.13;13.03;;;26.50;99.90;;;;;;4997797;28;20497;-76
2023/05/09 11:04:30;;;;;;;11.87;10.63;;;26.60;98.10;;;;;;4996305;28;20454;-75
2023/05/09 11:06:55;;;;;;;10.73;9.73;;;27.00;98.30;;;;;;4971170;28;20810;-74
2023/05/09 11:09:29;;;;;;;10.63;9.70;;;27.10;94.50;;;;;;4958367;29;20420;-77
2023/05/09 11:12:03;;;;;;;9.90;9.10;;;27.00;96.10;;;;;;4978654;28;20655;-75
2023/05/09 11:14:43;;;;;;;9.67;8.93;;;29.00;92.50;;;;;;4996320;28;20406;-77
2023/05/09 11:17:21;;;;;;;7.40;6.80;;;30.80;90.60;;;;;;4996333;28;20480;-77
2023/05/09 11:19:46;;;;;;;6.90;6.30;;;29.80;81.00;;;;;;4995028;28;20415;-76
2023/05/09 11:22:20;;;;;;;8.80;8.20;;;29.20;84.40;;;;;;4995074;28;20422;-77
2023/05/09 11:24:50;;;;;;;7.27;6.63;;;29.50;83.30;;;;;;4995186;28;20176;-74
2023/05/09 11:27:23;;;;;;;5.93;5.50;;;30.30;78.30;;;;;;4977417;28;20470;-74
2023/05/09 11:29:57;;;;;;;5.37;5.00;;;31.10;73.40;;;;;;4976840;28;20510;-75
2023/05/09 11:32:29;;;;;;;5.20;4.90;;;31.40;71.50;;;;;;4994993;28;20441;-74
2023/05/09 11:35:25;;;;;;;5.20;4.90;;;30.00;72.90;;;;;;4995318;28;20411;-74
2023/05/09 11:38:05;;;;;;;5.80;5.40;;;29.40;73.00;;;;;;4994891;28;20439;-74
2023/05/09 11:40:32;;;;;;;5.10;4.70;;;28.30;78.00;;;;;;4994872;28;20426;-74
2023/05/09 11:42:59;;;;;;;4.80;4.47;;;27.40;79.80;;;;;;4994796;28;20517;-77
2023/05/09 11:45:30;;;;;;;4.33;4.03;;;26.80;83.90;;;;;;4994846;28;20473;-78
2023/05/09 11:47:56;;;;;;;4.87;4.30;;;26.80;81.70;;;;;;4994652;28;20445;-77
2023/05/09 11:50:22;;;;;;;4.67;4.37;;;27.20;83.60;;;;;;4994590;28;20463;-76
2023/05/09 11:52:48;;;;;;;4.20;3.80;;;27.90;80.00;;;;;;4994637;28;20176;-76
2023/05/09 11:55:21;;;;;;;2.90;2.70;;;27.60;81.10;;;;;;4994912;28;20419;-76
2023/05/09 11:57:48;;;;;;;3.13;2.63;;;27.60;78.30;;;;;;4993826;28;20442;-76
2023/05/09 12:00:19;;;;;;;4.37;3.93;;;28.60;78.60;;;;;;4974523;28;20447;-77
2023/05/09 12:02:45;;;;;;;3.20;2.70;;;28.90;76.50;;;;;;4975015;28;20970;-77
2023/05/09 12:05:13;;;;;;;2.60;2.50;;;28.90;71.20;;;;;;4974963;28;20423;-77
2023/05/09 12:07:40;;;;;;;2.63;2.43;;;29.90;68.70;;;;;;4974808;28;20551;-77
2023/05/09 12:10:11;;;;;;;3.73;3.43;;;30.60;66.10;;;;;;4974718;28;20469;-76
2023/05/09 12:12:51;;;;;;;3.83;3.53;;;29.90;68.60;;;;;;4973886;28;20847;-76
2023/05/09 12:15:17;;;;;;;3.53;3.30;;;28.40;72.80;;;;;;4974729;28;20424;-76
2023/05/09 12:17:44;;;;;;;3.40;3.20;;;26.60;77.60;;;;;;4974504;28;20903;-77
2023/05/09 12:20:10;;;;;;;3.10;2.90;;;26.70;78.90;;;;;;4974614;28;20466;-76
2023/05/09 12:22:39;;;;;;;3.97;2.40;;;26.00;78.60;;;;;;4974559;28;20991;-77
2023/05/09 12:25:06;;;;;;;2.50;2.30;;;26.50;79.60;;;;;;4974294;28;20438;-76
2023/05/09 12:27:34;;;;;;;2.53;2.43;;;27.10;76.70;;;;;;4974510;28;20435;-76
2023/05/09 12:30:00;;;;;;;3.20;3.00;;;27.00;77.00;;;;;;4974086;28;20423;-76
2023/05/09 12:32:31;;;;;;;2.90;2.60;;;26.90;79.30;;;;;;4974363;28;20467;-76